Time;durP1;ratioP1;P1;durP2;ratioP2;P2;SDS_P1;SDS_P2;PMS_P1;PMS_P2;Temp;Humidity;BMP_temperature;BMP_pressure;BME280_temperature;BME280_humidity;BME280_pressure;Samples;Min_cycle;Max_cycle;Signal;HPM_P1;HPM_P2
2023/04/13 00:02:00;;;;;;;4.80;0.60;;;8.90;1.00;;;;;;5071201;28;20483;-53
2023/04/13 00:04:25;;;;;;;4.13;0.60;;;8.20;11.30;;;;;;5071556;28;20732;-53
2023/04/13 00:06:51;;;;;;;4.03;0.50;;;8.10;99.90;;;;;;5070797;28;20376;-53
2023/04/13 00:09:17;;;;;;;4.53;0.50;;;8.10;19.50;;;;;;5070430;28;20478;-53
2023/04/13 00:11:45;;;;;;;4.20;0.50;;;8.10;99.90;;;;;;5071325;28;20784;-54
2023/04/13 00:14:11;;;;;;;3.70;0.35;;;7.90;99.90;;;;;;5071780;28;20376;-53
2023/04/13 00:16:37;;;;;;;4.13;0.50;;;8.00;99.90;;;;;;5072044;28;20374;-53
2023/04/13 00:19:03;;;;;;;5.70;0.60;;;8.00;13.70;;;;;;5071058;28;21168;-53
2023/04/13 00:21:28;;;;;;;4.60;0.70;;;7.80;1.00;;;;;;5071630;28;20827;-53
2023/04/13 00:23:54;;;;;;;3.97;0.60;;;7.80;99.90;;;;;;5070874;28;20414;-53
2023/04/13 00:26:21;;;;;;;3.80;0.50;;;7.80;1.00;;;;;;5071747;28;20488;-53
2023/04/13 00:28:47;;;;;;;5.00;0.60;;;7.80;1.00;;;;;;5070633;28;20414;-53
2023/04/13 00:31:13;;;;;;;3.90;0.60;;;7.80;1.00;;;;;;5071223;28;20395;-53
2023/04/13 00:33:40;;;;;;;5.15;0.60;;;9.70;99.90;;;;;;5071086;28;20388;-53
2023/04/13 00:36:06;;;;;;;4.20;0.80;;;7.90;99.90;;;;;;5070713;28;20380;-53
2023/04/13 00:38:31;;;;;;;3.90;0.50;;;7.90;99.90;;;;;;5071263;28;20942;-53
2023/04/13 00:40:57;;;;;;;5.80;0.50;;;9.50;99.90;;;;;;5070407;28;20391;-53
2023/04/13 00:43:22;;;;;;;4.03;0.40;;;9.40;1.00;;;;;;5071147;28;20432;-53
2023/04/13 00:45:48;;;;;;;3.80;0.60;;;9.00;1.00;;;;;;5070477;28;20847;-53
2023/04/13 00:48:14;;;;;;;3.95;0.60;;;7.90;1.00;;;;;;5071495;28;20409;-53
2023/04/13 00:50:41;;;;;;;3.80;0.40;;;7.90;99.90;;;;;;5071076;28;20390;-56
2023/04/13 00:53:07;;;;;;;4.30;0.70;;;7.90;99.90;;;;;;5069825;28;20422;-53
2023/04/13 00:55:38;;;;;;;3.70;0.40;;;8.40;44.20;;;;;;5070901;28;20404;-53
2023/04/13 00:58:03;;;;;;;4.50;0.70;;;7.90;1.00;;;;;;5070215;28;20408;-53
2023/04/13 01:00:29;;;;;;;3.80;0.40;;;8.00;99.90;;;;;;5070262;28;20387;-53
2023/04/13 01:02:55;;;;;;;7.60;0.57;;;8.00;99.90;;;;;;5069627;28;20394;-53
2023/04/13 01:05:21;;;;;;;4.10;0.50;;;8.00;1.00;;;;;;5070699;28;20860;-53
2023/04/13 01:07:58;;;;;;;4.47;0.50;;;8.00;1.00;;;;;;5070159;28;20388;-54
2023/04/13 01:10:42;;;;;;;3.80;0.60;;;8.00;99.90;;;;;;5070527;28;20372;-53
2023/04/13 01:13:45;;;;;;;4.20;0.50;;;8.00;1.00;;;;;;5069783;28;20609;-53
2023/04/13 01:16:39;;;;;;;4.00;0.50;;;7.80;1.00;;;;;;5069879;28;20376;-53
2023/04/13 01:19:09;;;;;;;6.03;0.60;;;7.80;1.00;;;;;;5069601;28;20387;-53
2023/04/13 01:21:36;;;;;;;3.92;0.50;;;7.80;1.00;;;;;;5070471;28;20376;-53
2023/04/13 01:24:31;;;;;;;4.80;0.40;;;7.80;1.00;;;;;;5069575;28;20478;-53
2023/04/13 01:27:11;;;;;;;5.00;0.50;;;7.80;46.00;;;;;;5069397;28;20375;-53
2023/04/13 01:29:39;;;;;;;5.80;0.70;;;7.70;99.90;;;;;;5069907;28;20461;-55
2023/04/13 01:32:05;;;;;;;4.10;0.50;;;7.60;99.90;;;;;;5069179;28;20742;-55
2023/04/13 01:34:32;;;;;;;5.80;0.80;;;8.70;99.90;;;;;;5070159;28;20486;-55
2023/04/13 01:36:57;;;;;;;4.00;0.40;;;7.50;99.90;;;;;;5068981;28;20763;-53
2023/04/13 01:39:30;;;;;;;3.80;0.40;;;8.30;1.00;;;;;;5070221;28;20411;-53
2023/04/13 01:41:56;;;;;;;3.80;0.40;;;8.20;1.00;;;;;;5069672;28;20384;-53
2023/04/13 01:44:22;;;;;;;4.33;0.43;;;7.40;99.90;;;;;;5070014;28;20781;-53
2023/04/13 01:46:53;;;;;;;4.10;0.53;;;7.40;99.90;;;;;;5069483;28;20432;-53
2023/04/13 01:49:21;;;;;;;3.90;0.40;;;8.40;99.90;;;;;;5052470;28;20380;-53
2023/04/13 01:51:49;;;;;;;4.00;0.60;;;7.30;1.00;;;;;;5069129;28;20435;-53
2023/04/13 01:54:19;;;;;;;3.85;0.40;;;8.50;1.00;;;;;;5069846;28;20375;-55
2023/04/13 01:56:45;;;;;;;5.60;0.60;;;7.00;1.00;;;;;;5070137;28;20455;-55
2023/04/13 01:59:11;;;;;;;5.00;0.65;;;7.70;1.00;;;;;;5069249;28;20387;-55
2023/04/13 02:01:38;;;;;;;4.40;0.50;;;7.00;1.00;;;;;;5069689;28;20395;-55
2023/04/13 02:04:06;;;;;;;4.03;0.40;;;6.90;99.90;;;;;;5069172;28;20411;-55
2023/04/13 02:06:32;;;;;;;3.80;0.40;;;6.90;1.00;;;;;;5069605;28;20415;-55
2023/04/13 02:08:58;;;;;;;4.80;0.60;;;7.10;1.00;;;;;;5068978;28;20412;-53
2023/04/13 02:11:24;;;;;;;4.40;0.45;;;8.60;99.90;;;;;;5069712;28;20386;-53
2023/04/13 02:13:50;;;;;;;4.10;0.60;;;7.30;1.00;;;;;;5068928;28;20384;-53
2023/04/13 02:16:16;;;;;;;4.00;0.47;;;8.00;99.90;;;;;;5069707;28;20714;-53
2023/04/13 02:18:43;;;;;;;3.70;0.40;;;8.50;1.00;;;;;;5069514;28;20406;-55
2023/04/13 02:21:10;;;;;;;4.03;0.50;;;8.20;99.90;;;;;;5068943;28;20773;-55
2023/04/13 02:23:37;;;;;;;6.35;0.75;;;8.90;99.90;;;;;;5070021;28;20501;-55
2023/04/13 02:26:06;;;;;;;4.57;0.43;;;8.20;99.90;;;;;;5069192;28;20438;-55
2023/04/13 02:28:31;;;;;;;4.00;0.60;;;7.10;1.00;;;;;;5069324;28;20399;-55
2023/04/13 02:31:01;;;;;;;4.50;0.50;;;7.10;1.00;;;;;;5068751;28;20399;-55
2023/04/13 02:33:30;;;;;;;5.40;0.60;;;8.90;1.00;;;;;;5072528;28;20931;-56
2023/04/13 02:36:01;;;;;;;4.80;0.80;;;7.20;99.90;;;;;;5072486;28;20379;-55
2023/04/13 02:38:27;;;;;;;3.80;0.40;;;6.90;99.90;;;;;;5073500;28;20486;-55
2023/04/13 02:40:57;;;;;;;5.30;0.40;;;6.80;99.90;;;;;;5072663;28;20394;-55
2023/04/13 02:43:25;;;;;;;3.90;0.30;;;6.80;99.90;;;;;;5073470;28;20858;-56
2023/04/13 02:45:52;;;;;;;4.30;0.50;;;6.80;99.90;;;;;;5072663;28;20384;-55
2023/04/13 02:48:19;;;;;;;4.18;0.50;;;7.50;95.00;;;;;;5073087;28;20388;-55
2023/04/13 02:50:45;;;;;;;4.40;0.50;;;6.80;99.90;;;;;;5073114;28;20375;-55
2023/04/13 02:53:11;;;;;;;4.90;0.60;;;6.70;99.90;;;;;;5072269;28;20877;-55
2023/04/13 02:55:37;;;;;;;4.47;0.80;;;8.00;1.00;;;;;;5072606;28;20380;-55
2023/04/13 02:58:04;;;;;;;3.90;0.50;;;6.60;99.90;;;;;;5072405;28;20469;-55
2023/04/13 03:00:31;;;;;;;4.13;0.50;;;6.50;1.00;;;;;;5073183;28;20430;-55
2023/04/13 03:02:57;;;;;;;4.55;0.50;;;6.40;99.90;;;;;;5071824;28;20441;-55
2023/04/13 03:05:23;;;;;;;5.90;0.60;;;6.30;1.00;;;;;;5072737;28;20384;-55
2023/04/13 03:07:48;;;;;;;4.18;0.52;;;6.10;99.90;;;;;;5072397;28;20379;-55
2023/04/13 03:10:14;;;;;;;4.57;0.97;;;6.20;1.00;;;;;;5072851;28;21244;-55
2023/04/13 03:12:40;;;;;;;4.30;0.60;;;6.10;1.00;;;;;;5072773;28;20404;-55
2023/04/13 03:15:09;;;;;;;4.00;0.50;;;6.10;1.00;;;;;;5071748;28;20711;-55
2023/04/13 03:17:39;;;;;;;4.03;0.50;;;6.00;12.60;;;;;;5072357;28;20394;-55
2023/04/13 03:20:08;;;;;;;4.00;0.60;;;6.00;99.90;;;;;;5071517;28;20387;-55
2023/04/13 03:22:35;;;;;;;4.10;0.50;;;6.10;7.20;;;;;;5072780;28;20853;-55
2023/04/13 03:25:01;;;;;;;4.10;0.70;;;6.00;99.90;;;;;;5071823;28;20396;-55
2023/04/13 03:27:27;;;;;;;5.32;0.70;;;6.10;99.90;;;;;;5072558;28;20444;-55
2023/04/13 03:29:52;;;;;;;5.10;0.70;;;6.10;1.00;;;;;;5071794;28;20494;-56
2023/04/13 03:32:18;;;;;;;5.03;0.90;;;6.10;1.00;;;;;;5073377;28;20853;-53
2023/04/13 03:34:44;;;;;;;5.80;0.60;;;6.10;53.70;;;;;;5072403;28;20537;-55
2023/04/13 03:37:10;;;;;;;4.40;0.80;;;6.00;84.60;;;;;;5071816;28;21325;-55
2023/04/13 03:39:36;;;;;;;6.22;0.88;;;6.00;99.90;;;;;;5072300;28;20466;-55
2023/04/13 03:42:02;;;;;;;4.50;0.60;;;6.00;99.90;;;;;;5071457;28;20765;-53
2023/04/13 03:44:29;;;;;;;3.90;0.60;;;5.90;99.90;;;;;;5070903;28;20868;-52
2023/04/13 03:46:55;;;;;;;4.90;0.70;;;7.70;99.90;;;;;;5071464;28;20457;-52
2023/04/13 03:49:21;;;;;;;4.50;0.70;;;7.00;1.00;;;;;;5071992;28;20857;-52
2023/04/13 03:51:46;;;;;;;4.90;0.60;;;6.00;1.00;;;;;;5071945;28;20407;-52
2023/04/13 03:54:12;;;;;;;3.85;0.63;;;6.10;99.90;;;;;;5071917;28;20414;-53
2023/04/13 03:56:38;;;;;;;4.00;0.57;;;6.10;1.00;;;;;;5071535;28;20434;-53
2023/04/13 03:59:03;;;;;;;4.40;0.40;;;6.20;1.00;;;;;;5071007;28;20464;-52
2023/04/13 04:01:29;;;;;;;5.00;0.80;;;6.80;1.00;;;;;;5071888;28;20391;-52
2023/04/13 04:03:56;;;;;;;3.83;0.52;;;8.50;1.00;;;;;;5071315;28;20427;-53
2023/04/13 04:06:22;;;;;;;4.47;0.77;;;6.60;99.90;;;;;;5071717;28;20383;-55
2023/04/13 04:08:48;;;;;;;4.60;0.88;;;7.70;1.00;;;;;;5070976;28;20394;-56
2023/04/13 04:11:15;;;;;;;4.43;0.70;;;6.60;30.80;;;;;;5072024;28;20380;-56
2023/04/13 04:13:41;;;;;;;4.47;0.50;;;6.70;13.80;;;;;;5071719;28;20406;-55
2023/04/13 04:16:07;;;;;;;3.95;0.60;;;8.30;53.60;;;;;;5070563;28;20384;-55
2023/04/13 04:18:33;;;;;;;6.65;0.85;;;6.60;99.90;;;;;;5071437;28;20415;-55
2023/04/13 04:21:03;;;;;;;4.18;0.70;;;7.50;99.90;;;;;;5071126;28;20387;-55
2023/04/13 04:23:29;;;;;;;5.68;0.82;;;6.70;99.90;;;;;;5071634;28;20479;-55
2023/04/13 04:25:58;;;;;;;4.25;0.80;;;6.70;99.90;;;;;;5070589;28;20446;-55
2023/04/13 04:28:24;;;;;;;4.50;0.70;;;6.70;99.90;;;;;;5070889;28;20411;-55
2023/04/13 04:30:52;;;;;;;6.82;0.68;;;6.70;99.90;;;;;;5070942;28;20441;-55
2023/04/13 04:33:21;;;;;;;4.30;0.80;;;7.90;99.90;;;;;;5070830;28;20969;-55
2023/04/13 04:35:49;;;;;;;4.10;0.60;;;6.80;1.00;;;;;;5071130;28;20412;-55
2023/04/13 04:38:16;;;;;;;4.00;0.60;;;6.80;99.90;;;;;;5070923;28;20383;-55
2023/04/13 04:40:45;;;;;;;4.50;0.70;;;6.80;99.90;;;;;;5071140;28;20721;-55
2023/04/13 04:43:14;;;;;;;4.70;1.00;;;8.40;1.00;;;;;;5070384;28;20393;-55
2023/04/13 04:45:44;;;;;;;4.20;0.80;;;6.90;99.90;;;;;;5070658;28;20715;-55
2023/04/13 04:48:10;;;;;;;4.57;0.80;;;6.80;99.90;;;;;;5070089;28;20736;-55
2023/04/13 04:50:36;;;;;;;5.10;0.80;;;6.80;70.90;;;;;;5070663;28;20380;-55
2023/04/13 04:53:03;;;;;;;5.07;1.00;;;6.80;1.00;;;;;;5069886;28;20428;-55
2023/04/13 04:55:29;;;;;;;4.70;0.80;;;6.80;1.00;;;;;;5070654;28;20399;-55
2023/04/13 04:57:55;;;;;;;4.70;0.80;;;6.90;99.90;;;;;;5069768;28;20407;-55
2023/04/13 05:00:20;;;;;;;4.30;0.70;;;7.00;1.00;;;;;;5070610;28;20392;-55
2023/04/13 05:02:49;;;;;;;5.10;1.00;;;7.00;99.90;;;;;;5070652;28;20412;-55
2023/04/13 05:05:15;;;;;;;4.40;0.80;;;9.00;1.00;;;;;;5070335;28;20877;-55
2023/04/13 05:07:40;;;;;;;4.40;0.70;;;7.00;99.90;;;;;;5070737;28;20380;-55
2023/04/13 05:10:07;;;;;;;4.50;0.60;;;7.70;99.90;;;;;;5069685;28;20399;-55
2023/04/13 05:12:33;;;;;;;4.30;0.70;;;7.10;1.00;;;;;;5070121;28;20399;-55
2023/04/13 05:14:59;;;;;;;5.90;0.87;;;8.50;1.00;;;;;;5069590;28;20508;-55
2023/04/13 05:17:24;;;;;;;4.68;0.80;;;7.00;99.90;;;;;;5070120;28;20433;-55
2023/04/13 05:19:50;;;;;;;5.83;0.50;;;7.60;99.90;;;;;;5070212;28;20884;-56
2023/04/13 05:22:16;;;;;;;5.00;0.70;;;7.30;1.00;;;;;;5070285;28;20429;-55
2023/04/13 05:24:43;;;;;;;4.60;0.60;;;8.00;1.00;;;;;;5070056;28;20410;-55
2023/04/13 05:27:10;;;;;;;5.10;0.73;;;7.30;99.90;;;;;;5069705;28;20460;-55
2023/04/13 05:29:36;;;;;;;5.22;0.90;;;7.30;99.90;;;;;;5070069;28;20412;-55
2023/04/13 05:32:02;;;;;;;6.25;1.00;;;7.30;99.90;;;;;;5069337;28;20407;-55
2023/04/13 05:34:31;;;;;;;8.60;1.00;;;7.30;99.90;;;;;;5069914;28;20503;-53
2023/04/13 05:36:57;;;;;;;6.72;0.70;;;9.30;99.90;;;;;;5069953;28;20452;-53
2023/04/13 05:39:26;;;;;;;6.40;0.83;;;7.40;38.50;;;;;;5069569;28;20434;-52
2023/04/13 05:41:52;;;;;;;6.70;1.50;;;7.50;88.00;;;;;;5069427;28;20379;-53
2023/04/13 05:44:17;;;;;;;6.13;1.00;;;7.40;1.00;;;;;;5070393;28;20886;-55
2023/04/13 05:46:43;;;;;;;4.43;0.80;;;8.60;1.00;;;;;;5069558;28;20795;-55
2023/04/13 05:49:09;;;;;;;6.90;1.10;;;7.70;1.00;;;;;;5069558;28;20403;-55
2023/04/13 05:51:35;;;;;;;4.70;0.80;;;7.70;1.00;;;;;;5070253;28;20437;-55
2023/04/13 05:54:01;;;;;;;4.60;0.63;;;8.50;99.90;;;;;;5069046;28;20388;-54
2023/04/13 05:56:28;;;;;;;6.80;0.88;;;7.70;99.90;;;;;;5069880;28;20372;-55
2023/04/13 05:58:54;;;;;;;5.47;0.85;;;7.60;99.90;;;;;;5069285;28;20445;-56
2023/04/13 06:01:19;;;;;;;6.95;0.70;;;7.80;99.90;;;;;;5069467;28;20392;-55
2023/04/13 06:03:45;;;;;;;4.90;0.90;;;8.20;1.00;;;;;;5066700;28;20505;-55
2023/04/13 06:06:11;;;;;;;5.60;0.82;;;7.70;1.00;;;;;;5064136;28;20486;-55
2023/04/13 06:08:38;;;;;;;5.90;0.90;;;7.70;1.00;;;;;;5069553;28;20392;-55
2023/04/13 06:11:05;;;;;;;4.70;0.80;;;7.90;1.00;;;;;;5068657;28;20477;-55
2023/04/13 06:13:31;;;;;;;7.82;0.85;;;7.90;1.00;;;;;;5069345;28;20420;-55
2023/04/13 06:15:57;;;;;;;5.10;0.73;;;7.80;99.90;;;;;;5068619;28;20392;-55
2023/04/13 06:18:25;;;;;;;4.60;0.70;;;7.80;99.90;;;;;;5069437;28;20863;-55
2023/04/13 06:20:51;;;;;;;6.87;1.03;;;8.00;99.90;;;;;;5068865;28;20719;-56
2023/04/13 06:23:16;;;;;;;5.85;0.60;;;8.10;1.00;;;;;;5068905;28;20478;-55
2023/04/13 06:25:43;;;;;;;6.65;0.70;;;8.10;99.90;;;;;;5069631;28;20857;-55
2023/04/13 06:28:09;;;;;;;5.03;0.77;;;8.20;99.90;;;;;;5068718;28;20395;-55
2023/04/13 06:30:36;;;;;;;6.25;1.00;;;8.30;99.90;;;;;;5069508;28;20403;-53
2023/04/13 06:33:01;;;;;;;5.20;0.80;;;8.40;99.90;;;;;;5068672;28;20399;-53
2023/04/13 06:35:29;;;;;;;6.20;1.00;;;8.40;99.90;;;;;;5069694;28;20727;-55
2023/04/13 06:37:57;;;;;;;6.10;0.80;;;8.40;99.90;;;;;;5068997;28;20843;-55
2023/04/13 06:40:24;;;;;;;7.10;0.60;;;8.30;99.90;;;;;;5069616;28;20441;-53
2023/04/13 06:42:50;;;;;;;4.67;0.83;;;8.60;99.90;;;;;;5069417;28;20389;-53
2023/04/13 06:45:16;;;;;;;5.80;0.98;;;9.30;99.90;;;;;;5069042;28;20549;-52
2023/04/13 06:47:42;;;;;;;5.20;0.60;;;9.40;1.00;;;;;;5069361;28;20486;-53
2023/04/13 06:50:09;;;;;;;5.60;0.90;;;9.40;1.00;;;;;;5068663;28;20737;-54
2023/04/13 06:52:35;;;;;;;4.90;0.80;;;9.30;1.00;;;;;;5068941;28;20502;-52
2023/04/13 06:55:01;;;;;;;6.03;0.80;;;9.20;1.00;;;;;;5068625;28;20376;-52
2023/04/13 06:57:28;;;;;;;5.00;0.70;;;8.00;1.00;;;;;;5069350;28;20380;-52
2023/04/13 06:59:54;;;;;;;7.17;1.07;;;9.00;1.00;;;;;;5068421;28;20393;-53
2023/04/13 07:02:20;;;;;;;4.80;0.70;;;10.60;1.00;;;;;;5069484;28;20415;-52
2023/04/13 07:04:45;;;;;;;5.53;0.70;;;8.80;1.00;;;;;;5068999;28;20418;-54
2023/04/13 07:07:11;;;;;;;4.30;0.65;;;8.70;1.00;;;;;;5068161;28;20438;-54
2023/04/13 07:09:37;;;;;;;5.63;0.80;;;8.40;1.00;;;;;;5068923;28;20718;-54
2023/04/13 07:12:03;;;;;;;5.18;0.70;;;8.40;1.00;;;;;;5068547;28;20406;-54
2023/04/13 07:14:33;;;;;;;5.97;1.10;;;8.40;1.00;;;;;;5069001;28;20923;-52
2023/04/13 07:16:59;;;;;;;5.05;0.90;;;8.90;1.00;;;;;;5068419;28;20387;-54
2023/04/13 07:19:26;;;;;;;5.55;0.77;;;8.60;1.00;;;;;;5071932;28;20384;-52
2023/04/13 07:21:51;;;;;;;6.80;1.10;;;8.80;1.00;;;;;;5071803;28;20380;-55
2023/04/13 07:24:17;;;;;;;6.10;0.90;;;8.90;1.00;;;;;;5072514;28;20387;-54
2023/04/13 07:26:44;;;;;;;8.55;1.00;;;9.10;1.00;;;;;;5072400;28;20387;-54
2023/04/13 07:29:12;;;;;;;5.57;1.08;;;9.30;1.00;;;;;;5071181;28;20968;-58
2023/04/13 07:31:38;;;;;;;8.38;0.90;;;9.40;1.00;;;;;;5072216;28;20391;-55
2023/04/13 07:34:04;;;;;;;4.60;0.70;;;9.30;1.00;;;;;;5071185;28;20444;-54
2023/04/13 07:36:31;;;;;;;5.40;0.70;;;9.20;1.00;;;;;;5072134;28;20729;-54
2023/04/13 07:38:57;;;;;;;4.90;0.85;;;9.50;1.00;;;;;;5071475;28;20383;-55
2023/04/13 07:41:23;;;;;;;5.57;0.90;;;10.00;1.00;;;;;;5072250;28;20395;-55
2023/04/13 07:43:49;;;;;;;7.50;1.00;;;10.50;1.00;;;;;;5072581;28;20387;-55
2023/04/13 07:46:15;;;;;;;9.13;1.00;;;10.80;1.00;;;;;;5071079;28;20560;-55
2023/04/13 07:48:40;;;;;;;6.68;1.00;;;10.80;1.00;;;;;;5072091;28;20889;-55
2023/04/13 07:51:14;;;;;;;6.90;1.00;;;10.50;1.00;;;;;;5071917;28;20371;-53
2023/04/13 07:53:40;;;;;;;6.03;0.90;;;11.40;1.00;;;;;;5072391;28;20396;-53
2023/04/13 07:56:06;;;;;;;7.63;1.00;;;12.10;1.00;;;;;;5071884;28;20783;-53
2023/04/13 07:58:31;;;;;;;6.05;1.00;;;12.00;1.00;;;;;;5071810;28;20892;-53
2023/04/13 08:00:57;;;;;;;6.13;1.07;;;11.50;1.00;;;;;;5070950;28;20384;-53
2023/04/13 08:03:23;;;;;;;6.30;0.80;;;11.10;1.00;;;;;;5071833;28;20741;-52
2023/04/13 08:05:48;;;;;;;8.10;1.17;;;10.90;1.00;;;;;;5071520;28;20430;-52
2023/04/13 08:08:14;;;;;;;5.00;0.60;;;10.50;1.00;;;;;;5071277;28;20380;-52
2023/04/13 08:10:40;;;;;;;6.45;1.30;;;9.80;1.00;;;;;;5071908;28;20508;-52
2023/04/13 08:13:05;;;;;;;6.80;1.00;;;9.50;1.00;;;;;;5070724;28;20494;-53
2023/04/13 08:15:31;;;;;;;8.03;1.00;;;9.40;1.00;;;;;;5071425;28;20744;-53
2023/04/13 08:17:58;;;;;;;8.43;1.10;;;9.40;1.00;;;;;;5070976;28;20375;-53
2023/04/13 08:20:24;;;;;;;6.55;0.93;;;9.30;1.00;;;;;;5071217;28;20455;-52
2023/04/13 08:22:49;;;;;;;5.40;0.70;;;9.20;1.00;;;;;;5071440;28;20826;-53
2023/04/13 08:25:16;;;;;;;6.53;0.98;;;9.20;1.00;;;;;;5070985;28;21300;-53
2023/04/13 08:27:42;;;;;;;4.78;0.70;;;9.30;1.00;;;;;;5071077;28;20741;-53
2023/04/13 08:30:10;;;;;;;8.60;1.20;;;9.40;1.00;;;;;;5069901;28;20403;-53
2023/04/13 08:32:36;;;;;;;6.57;0.90;;;9.30;1.00;;;;;;5071186;28;20395;-53
2023/04/13 08:35:06;;;;;;;8.88;0.85;;;9.40;1.00;;;;;;5070358;28;20471;-53
2023/04/13 08:37:32;;;;;;;4.50;0.70;;;9.30;1.00;;;;;;5070885;28;20829;-53
2023/04/13 08:39:59;;;;;;;5.90;0.80;;;9.30;1.00;;;;;;5070145;28;20775;-53
2023/04/13 08:42:29;;;;;;;6.20;1.30;;;9.20;1.00;;;;;;5071129;28;20418;-53
2023/04/13 08:45:00;;;;;;;8.10;1.07;;;9.10;1.00;;;;;;5070545;28;20475;-54
2023/04/13 08:47:27;;;;;;;8.02;0.90;;;9.10;1.00;;;;;;5070667;28;20355;-53
2023/04/13 08:50:00;;;;;;;8.35;1.00;;;9.10;1.00;;;;;;5070997;28;20368;-53
2023/04/13 08:52:28;;;;;;;8.50;1.20;;;9.30;1.00;;;;;;5052674;28;20487;-53
2023/04/13 08:54:57;;;;;;;5.87;0.83;;;9.20;1.00;;;;;;5070232;28;20469;-54
2023/04/13 08:57:22;;;;;;;7.28;0.80;;;9.40;1.00;;;;;;5070702;28;20951;-53
2023/04/13 08:59:52;;;;;;;5.82;0.82;;;9.40;1.00;;;;;;5070972;28;20475;-53
2023/04/13 09:02:24;;;;;;;7.50;0.90;;;9.50;1.00;;;;;;5070011;28;20383;-53
2023/04/13 09:04:56;;;;;;;8.00;0.90;;;9.50;1.00;;;;;;5070471;28;20383;-53
2023/04/13 09:07:25;;;;;;;5.07;0.90;;;9.60;1.00;;;;;;5070926;28;20455;-53
2023/04/13 09:09:55;;;;;;;5.68;0.70;;;9.50;1.00;;;;;;5070528;28;20400;-52
2023/04/13 09:12:20;;;;;;;6.45;0.90;;;9.60;1.00;;;;;;5070728;28;20861;-53
2023/04/13 09:14:46;;;;;;;5.40;1.00;;;9.80;1.00;;;;;;5070844;28;20441;-53
2023/04/13 09:17:26;;;;;;;7.43;0.77;;;9.90;1.00;;;;;;5069842;28;20387;-53
2023/04/13 09:19:53;;;;;;;6.40;0.77;;;9.90;1.00;;;;;;5069915;28;20388;-54
2023/04/13 09:22:20;;;;;;;11.20;1.60;;;9.80;1.00;;;;;;5070183;28;20383;-53
2023/04/13 09:24:46;;;;;;;5.50;0.50;;;9.90;1.00;;;;;;5070123;28;20400;-53
2023/04/13 09:27:22;;;;;;;8.00;1.15;;;10.10;1.00;;;;;;5069472;28;20922;-53
2023/04/13 09:29:52;;;;;;;7.80;1.80;;;10.00;1.00;;;;;;5070149;28;20498;-53
2023/04/13 09:32:20;;;;;;;5.10;1.08;;;9.80;1.00;;;;;;5070149;28;20756;-53
2023/04/13 09:35:13;;;;;;;6.30;1.40;;;10.10;1.00;;;;;;5070203;28;20416;-53
2023/04/13 09:37:42;;;;;;;9.25;1.83;;;10.00;1.00;;;;;;5070018;28;20387;-53
2023/04/13 09:40:13;;;;;;;5.43;1.40;;;9.90;1.00;;;;;;5069092;28;20395;-53
2023/04/13 09:42:59;;;;;;;8.25;2.70;;;9.90;1.00;;;;;;5069801;28;20388;-53
2023/04/13 09:45:36;;;;;;;6.25;1.30;;;9.90;1.00;;;;;;5069904;28;20376;-53
2023/04/13 09:48:03;;;;;;;10.33;3.80;;;9.70;1.00;;;;;;5069205;28;20523;-53
2023/04/13 09:50:31;;;;;;;5.65;1.25;;;9.80;1.00;;;;;;5069828;28;20379;-53
2023/04/13 09:53:01;;;;;;;7.22;1.10;;;9.80;1.00;;;;;;5069179;28;20946;-53
2023/04/13 09:55:27;;;;;;;4.80;1.10;;;9.90;1.00;;;;;;5069799;28;20394;-53
2023/04/13 09:57:53;;;;;;;6.43;0.70;;;9.80;1.00;;;;;;5069479;28;20583;-54
2023/04/13 10:00:20;;;;;;;7.53;1.30;;;9.80;1.00;;;;;;5069602;28;20478;-53
2023/04/13 10:02:49;;;;;;;6.90;1.20;;;9.70;1.00;;;;;;5069064;28;20756;-53
2023/04/13 10:05:16;;;;;;;11.85;1.10;;;9.90;1.00;;;;;;5068751;28;20376;-53
2023/04/13 10:07:43;;;;;;;7.57;1.20;;;9.80;1.00;;;;;;5069780;28;20384;-53
2023/04/13 10:10:09;;;;;;;8.48;0.95;;;9.80;1.00;;;;;;5068736;28;20828;-53
2023/04/13 10:12:37;;;;;;;12.20;2.40;;;10.00;1.00;;;;;;5069420;28;20498;-53
2023/04/13 10:15:33;;;;;;;9.18;1.10;;;10.20;1.00;;;;;;5068797;28;20416;-53
2023/04/13 10:18:11;;;;;;;5.63;0.98;;;10.40;1.00;;;;;;5069131;28;20383;-53
2023/04/13 10:20:38;;;;;;;8.23;0.90;;;10.60;1.00;;;;;;5069859;28;20376;-53
2023/04/13 10:23:04;;;;;;;8.63;0.95;;;10.70;1.00;;;;;;5068649;28;20428;-53
2023/04/13 10:25:30;;;;;;;6.65;0.80;;;10.80;1.00;;;;;;5069648;28;20417;-53
2023/04/13 10:27:57;;;;;;;5.50;0.80;;;10.80;99.90;;;;;;5068889;28;20391;-54
2023/04/13 10:30:23;;;;;;;5.20;1.10;;;10.70;99.90;;;;;;5069970;28;20433;-53
2023/04/13 10:33:09;;;;;;;5.72;1.00;;;10.60;99.90;;;;;;5069599;28;20402;-53
2023/04/13 10:35:36;;;;;;;5.00;1.00;;;10.70;99.90;;;;;;5069502;28;20399;-53
2023/04/13 10:38:02;;;;;;;5.82;0.85;;;10.90;1.00;;;;;;5068969;28;20380;-53
2023/04/13 10:40:27;;;;;;;7.93;1.40;;;10.80;1.00;;;;;;5069116;28;20392;-53
2023/04/13 10:42:53;;;;;;;8.93;1.00;;;10.80;99.90;;;;;;5069564;28;20387;-53
2023/04/13 10:45:22;;;;;;;5.80;0.90;;;10.70;1.00;;;;;;5069121;28;20372;-53
2023/04/13 10:47:49;;;;;;;6.83;1.07;;;10.80;99.90;;;;;;5069357;28;20388;-53
2023/04/13 10:50:21;;;;;;;6.22;0.60;;;10.60;99.90;;;;;;5068714;28;20415;-53
2023/04/13 10:53:06;;;;;;;6.00;0.80;;;10.60;99.90;;;;;;5069974;28;20730;-53
2023/04/13 10:55:33;;;;;;;6.20;0.85;;;10.70;99.90;;;;;;5072664;28;20857;-53
2023/04/13 10:58:00;;;;;;;11.10;1.30;;;10.90;99.90;;;;;;5072340;28;20399;-53
2023/04/13 11:00:29;;;;;;;7.80;0.70;;;11.00;99.90;;;;;;5072903;28;20864;-53
2023/04/13 11:02:58;;;;;;;6.70;0.80;;;11.10;99.90;;;;;;5072970;28;20833;-54
2023/04/13 11:05:26;;;;;;;9.50;1.13;;;10.80;99.90;;;;;;5072955;28;20387;-53
2023/04/13 11:07:51;;;;;;;5.10;0.98;;;11.20;99.90;;;;;;5072519;28;20875;-53
2023/04/13 11:10:27;;;;;;;6.70;1.02;;;10.60;99.90;;;;;;5072146;28;20477;-53
2023/04/13 11:12:55;;;;;;;7.57;0.70;;;10.60;1.00;;;;;;5073097;28;20415;-54
2023/04/13 11:15:22;;;;;;;7.40;0.70;;;10.50;1.00;;;;;;5072706;28;20421;-53
2023/04/13 11:17:56;;;;;;;5.53;0.82;;;10.60;1.00;;;;;;5072773;28;20383;-53
2023/04/13 11:20:38;;;;;;;9.70;0.90;;;10.60;1.00;;;;;;5072457;28;20372;-53
2023/04/13 11:23:14;;;;;;;9.07;1.00;;;10.70;1.00;;;;;;5072553;28;20379;-53
2023/04/13 11:26:00;;;;;;;5.22;0.50;;;10.80;1.00;;;;;;5072486;28;20721;-53
2023/04/13 11:28:45;;;;;;;5.80;0.90;;;11.00;1.00;;;;;;5072218;28;20453;-54
2023/04/13 11:31:12;;;;;;;6.27;0.70;;;11.40;1.00;;;;;;5071630;28;20403;-54
2023/04/13 11:33:38;;;;;;;5.20;0.70;;;11.90;1.00;;;;;;5072062;28;20435;-54
2023/04/13 11:36:04;;;;;;;4.45;0.50;;;12.20;1.00;;;;;;5071811;28;20382;-54
2023/04/13 11:38:33;;;;;;;4.88;0.73;;;12.70;1.00;;;;;;5073157;28;20387;-54
2023/04/13 11:41:01;;;;;;;4.73;0.60;;;12.50;1.00;;;;;;5071978;28;20372;-54
2023/04/13 11:43:26;;;;;;;5.20;0.60;;;12.10;99.90;;;;;;5072137;28;20375;-53
2023/04/13 11:45:53;;;;;;;4.70;0.40;;;11.90;99.90;;;;;;5072062;28;20846;-54
2023/04/13 11:48:19;;;;;;;5.60;0.50;;;12.10;99.90;;;;;;5072131;28;20422;-54
2023/04/13 11:50:45;;;;;;;5.22;0.63;;;12.80;99.90;;;;;;5072486;28;20449;-54
2023/04/13 11:53:12;;;;;;;4.45;0.50;;;13.70;99.90;;;;;;5071422;28;20399;-54
2023/04/13 11:55:40;;;;;;;4.30;0.40;;;13.80;99.90;;;;;;5072140;28;20384;-54
2023/04/13 11:58:10;;;;;;;4.60;0.50;;;14.00;99.90;;;;;;5071318;28;20426;-54
2023/04/13 12:00:39;;;;;;;4.78;0.40;;;13.60;99.90;;;;;;5072061;28;20384;-54
2023/04/13 12:03:13;;;;;;;4.70;0.52;;;13.70;99.90;;;;;;5071153;28;20453;-54
2023/04/13 12:05:40;;;;;;;6.70;0.60;;;13.50;99.90;;;;;;5070789;28;20380;-53
2023/04/13 12:08:07;;;;;;;4.80;0.50;;;13.30;99.90;;;;;;5070817;28;20372;-53
2023/04/13 12:10:34;;;;;;;4.27;0.30;;;13.00;99.90;;;;;;5071592;28;20448;-53
2023/04/13 12:13:07;;;;;;;5.60;0.60;;;12.80;99.90;;;;;;5070773;28;20901;-54
2023/04/13 12:15:35;;;;;;;5.60;0.60;;;12.80;99.90;;;;;;5072025;28;20395;-53
2023/04/13 12:18:01;;;;;;;7.67;0.90;;;13.20;99.90;;;;;;5070956;28;20474;-54
2023/04/13 12:20:38;;;;;;;5.82;0.70;;;13.00;99.90;;;;;;5071656;28;20360;-54
2023/04/13 12:23:23;;;;;;;6.30;0.70;;;13.30;99.90;;;;;;5071248;28;20461;-54
2023/04/13 12:25:57;;;;;;;6.20;0.50;;;13.10;99.90;;;;;;5071876;28;20455;-54
2023/04/13 12:28:29;;;;;;;4.47;0.50;;;13.00;99.90;;;;;;5071037;28;20403;-53
2023/04/13 12:31:08;;;;;;;4.97;0.52;;;13.20;99.90;;;;;;5071523;28;20388;-54
2023/04/13 12:33:34;;;;;;;5.30;0.70;;;13.40;99.90;;;;;;5071628;28;20404;-54
2023/04/13 12:36:00;;;;;;;6.20;0.90;;;13.20;99.90;;;;;;5070673;28;20388;-54
2023/04/13 12:38:26;;;;;;;5.60;0.70;;;12.90;99.90;;;;;;5071296;28;20444;-54
2023/04/13 12:40:56;;;;;;;7.90;0.98;;;12.80;99.90;;;;;;5071430;28;20779;-54
2023/04/13 12:43:23;;;;;;;5.25;0.70;;;13.60;99.90;;;;;;5071062;28;20392;-54
2023/04/13 12:45:50;;;;;;;5.88;1.00;;;12.90;99.90;;;;;;5071393;28;20463;-53
2023/04/13 12:48:16;;;;;;;7.40;0.80;;;12.90;99.90;;;;;;5070457;28;20390;-53
2023/04/13 12:50:41;;;;;;;5.47;0.90;;;13.20;99.90;;;;;;5071397;28;20372;-54
2023/04/13 12:53:07;;;;;;;6.72;1.40;;;13.40;99.90;;;;;;5069922;28;20408;-54
2023/04/13 12:55:32;;;;;;;7.10;1.90;;;13.60;99.90;;;;;;5070819;28;20383;-54
2023/04/13 12:57:58;;;;;;;7.77;1.70;;;13.60;99.90;;;;;;5070277;28;20532;-54
2023/04/13 13:00:24;;;;;;;7.82;1.30;;;13.50;99.90;;;;;;5070662;28;20457;-53
2023/04/13 13:02:52;;;;;;;5.43;0.90;;;13.00;99.90;;;;;;5070810;28;20762;-54
2023/04/13 13:05:18;;;;;;;8.05;1.30;;;13.00;99.90;;;;;;5069784;28;20487;-54